Terminal Aerodrome Forecast
Issued by NWS

Home | Current Version | Previous Version | Text Only | Print | Product List | Glossary On
Versions: 1 2 3 4 5 6 7 8 9 10 11 12 13 14 15 16 17 18 19 20 21 22 23 24 25 26 27 28 29 30 31 32 33 34 35 36 37 38 39 40 41 42 43
000
FTUS44 KHGX 041121
TAFCXO
TAF
KCXO 041121Z 0412/0512 16006KT P6SM BKN015 OVC025
      TEMPO 0412/0415 6SM BR BKN007
     FM041600 16008KT P6SM BKN022
     FM041800 17010KT P6SM BKN035
     FM050100 34010G20KT P6SM VCSH BKN015
     FM050800 35015G25KT P6SM -RA OVC007=

USA.gov is the U.S. government's official web portal to all federal, state and local government web resources and services.